Time;durP1;ratioP1;P1;durP2;ratioP2;P2;SDS_P1;SDS_P2;PMS_P1;PMS_P2;Temp;Humidity;BMP_temperature;BMP_pressure;BME280_temperature;BME280_humidity;BME280_pressure;Samples;Min_cycle;Max_cycle;Signal;HPM_P1;HPM_P2
2021/07/30 00:01:03;167764.00;0.56;290.41;65485.00;0.22;113.96;;;;;22.60;1.00;;;;;;2249416;61;978;-80
2021/07/30 00:03:31;398322.00;1.33;686.92;99260.00;0.33;172.29;;;;;22.80;1.00;;;;;;2259791;61;1025;-80
2021/07/30 00:05:59;164133.00;0.55;284.16;68302.00;0.23;118.83;;;;;22.50;1.00;;;;;;2259649;61;1017;-79
2021/07/30 00:08:26;304810.00;1.02;526.19;65031.00;0.22;113.17;;;;;22.70;1.00;;;;;;2255941;61;1339;-81
2021/07/30 00:10:55;374615.00;1.25;646.17;103419.00;0.34;179.47;;;;;22.70;1.00;;;;;;2255857;61;1015;-77
2021/07/30 00:13:22;254896.00;0.85;440.37;78061.00;0.26;135.69;;;;;22.60;1.00;;;;;;2254904;61;1997;-80
2021/07/30 00:15:49;165648.00;0.55;286.77;71604.00;0.24;124.53;;;;;22.20;1.00;;;;;;2256041;61;991;-78
2021/07/30 00:18:16;217221.00;0.72;375.56;75445.00;0.25;131.17;;;;;22.30;1.00;;;;;;2243981;61;1441;-80
2021/07/30 00:20:44;169660.00;0.57;293.68;59477.00;0.20;103.57;;;;;22.20;1.00;;;;;;2237341;61;959;-79
2021/07/30 00:23:11;161943.00;0.54;280.39;60810.00;0.20;105.88;;;;;22.30;1.00;;;;;;2240720;61;900;-79
2021/07/30 00:25:38;237070.00;0.79;409.71;68240.00;0.23;118.72;;;;;22.30;1.00;;;;;;2243848;61;1001;-80
2021/07/30 00:28:05;200546.00;0.67;346.86;66367.00;0.22;115.48;;;;;22.60;1.00;;;;;;2244233;61;1326;-78
2021/07/30 00:30:32;177146.00;0.59;306.57;64506.00;0.22;112.27;;;;;22.40;1.00;;;;;;2236016;62;1065;-80
2021/07/30 00:32:59;274559.00;0.92;474.18;105128.00;0.35;182.42;;;;;22.20;1.00;;;;;;2229746;62;2002;-79
2021/07/30 00:35:27;165200.00;0.55;286.00;67126.00;0.22;116.79;;;;;22.10;1.00;;;;;;2237453;61;1003;-79
2021/07/30 00:40:23;204481.00;0.68;353.64;71023.00;0.24;123.53;;;;;21.90;1.00;;;;;;2273558;61;1378;-77
2021/07/30 00:42:51;293396.00;0.98;506.57;71248.00;0.24;123.92;;;;;21.90;1.00;;;;;;2265268;61;927;-79
2021/07/30 00:45:19;228806.00;0.76;395.49;71173.00;0.24;123.79;;;;;21.90;1.00;;;;;;2272056;61;997;-79
2021/07/30 00:47:48;583144.00;1.94;1005.12;202564.00;0.68;350.34;;;;;21.90;1.00;;;;;;2264461;61;1334;-79
2021/07/30 00:50:16;164595.00;0.55;284.96;72463.00;0.24;126.02;;;;;21.60;1.00;;;;;;2261159;61;962;-80
2021/07/30 00:52:43;288887.00;0.96;498.82;64820.00;0.22;112.81;;;;;21.60;1.00;;;;;;2257675;61;1994;-80
2021/07/30 00:55:11;188332.00;0.63;325.84;72762.00;0.24;126.53;;;;;21.50;1.00;;;;;;2260968;61;937;-79
2021/07/30 00:57:41;198487.00;0.66;343.32;77606.00;0.26;134.90;;;;;21.10;1.00;;;;;;2259405;61;1305;-79
2021/07/30 01:00:09;206616.00;0.69;357.31;55476.00;0.18;96.66;;;;;20.80;1.00;;;;;;2259614;61;993;-77
2021/07/30 01:02:36;169016.00;0.56;292.57;74141.00;0.25;128.92;;;;;20.70;1.00;;;;;;2253019;61;1523;-77
2021/07/30 01:05:04;160383.00;0.53;277.70;56237.00;0.19;97.97;;;;;21.10;1.00;;;;;;2250722;61;934;-80
2021/07/30 01:07:31;212068.00;0.71;366.69;78899.00;0.26;137.14;;;;;21.20;1.00;;;;;;2243490;61;1398;-79
2021/07/30 01:10:00;170669.00;0.57;295.42;75490.00;0.25;131.25;;;;;21.10;1.00;;;;;;2240009;61;972;-80
2021/07/30 01:12:27;290269.00;0.97;501.19;65960.00;0.22;114.78;;;;;20.80;1.00;;;;;;2233442;61;2002;-80
2021/07/30 01:14:55;180088.00;0.60;311.64;62347.00;0.21;108.53;;;;;20.90;1.00;;;;;;2237279;61;976;-78
2021/07/30 01:17:24;207851.00;0.69;359.44;69993.00;0.23;121.75;;;;;21.30;1.00;;;;;;2236255;61;1468;-78
2021/07/30 01:19:50;273538.00;0.91;472.43;72015.00;0.24;125.24;;;;;21.30;1.00;;;;;;2232908;61;953;-80
2021/07/30 01:22:23;309113.00;1.03;533.58;110432.00;0.37;191.58;;;;;21.60;1.00;;;;;;2230689;62;1035;-80
2021/07/30 01:24:52;169545.00;0.57;293.48;68412.00;0.23;119.02;;;;;21.70;1.00;;;;;;2234810;61;924;-80
2021/07/30 01:27:19;268430.00;0.89;463.64;74515.00;0.25;129.56;;;;;21.80;1.00;;;;;;2241551;61;1347;-79
2021/07/30 01:29:46;175183.00;0.58;303.19;74044.00;0.25;128.75;;;;;21.70;1.00;;;;;;2247079;61;928;-80
2021/07/30 01:32:13;183552.00;0.61;317.61;69426.00;0.23;120.77;;;;;21.90;1.00;;;;;;2248326;61;1923;-79
2021/07/30 01:34:42;215918.00;0.72;373.32;62216.00;0.21;108.31;;;;;21.70;1.00;;;;;;2248964;61;1020;-81
2021/07/30 01:37:09;388378.00;1.29;669.83;69952.00;0.23;121.68;;;;;21.60;1.00;;;;;;2245628;61;1382;-78
2021/07/30 01:39:36;212967.00;0.71;368.24;70220.00;0.23;122.14;;;;;21.70;1.00;;;;;;2250809;61;1061;-79
2021/07/30 01:42:05;257989.00;0.86;445.69;68988.00;0.23;120.01;;;;;21.70;1.00;;;;;;2253311;61;950;-79
2021/07/30 01:44:32;181701.00;0.61;314.42;73967.00;0.25;128.61;;;;;21.60;1.00;;;;;;2249249;61;1066;-78
2021/07/30 01:46:59;211999.00;0.71;366.58;68769.00;0.23;119.63;;;;;21.70;1.00;;;;;;2260070;61;1408;-79
2021/07/30 01:49:26;168039.00;0.56;290.89;72304.00;0.24;125.74;;;;;21.90;1.00;;;;;;2256851;61;947;-79
2021/07/30 01:51:53;163787.00;0.55;283.56;68108.00;0.23;118.49;;;;;21.80;1.00;;;;;;2250379;61;998;-78
2021/07/30 01:54:20;195811.00;0.65;338.71;66358.00;0.22;115.47;;;;;21.90;1.00;;;;;;2253198;61;1932;-79
2021/07/30 01:56:47;592081.00;1.97;1020.55;189425.00;0.63;327.72;;;;;21.80;1.00;;;;;;2250621;61;1462;-79
2021/07/30 01:59:15;164068.00;0.55;284.05;67672.00;0.23;117.74;;;;;22.00;1.00;;;;;;2245898;61;1076;-79
2021/07/30 02:01:42;467269.00;1.56;805.49;72951.00;0.24;126.86;;;;;22.20;1.00;;;;;;2255958;61;1032;-80
2021/07/30 02:04:09;254275.00;0.85;439.30;65735.00;0.22;114.39;;;;;21.90;1.00;;;;;;2255949;61;1029;-79
2021/07/30 02:06:36;218254.00;0.73;377.34;71804.00;0.24;124.88;;;;;21.90;1.00;;;;;;2249592;61;1358;-78
2021/07/30 02:09:03;163593.00;0.55;283.23;69649.00;0.23;121.15;;;;;22.20;1.00;;;;;;2248118;61;990;-78
2021/07/30 02:11:30;166235.00;0.55;287.78;69707.00;0.23;121.25;;;;;21.60;1.00;;;;;;2241844;61;917;-79
2021/07/30 02:14:15;166073.00;0.55;287.50;69604.00;0.23;121.08;;;;;21.40;1.00;;;;;;2245865;61;2002;-79
2021/07/30 02:16:45;209042.00;0.70;361.49;70636.00;0.24;122.86;;;;;21.30;1.00;;;;;;2256082;61;1280;-80
2021/07/30 02:19:13;292958.00;0.98;505.81;69801.00;0.23;121.42;;;;;21.60;1.00;;;;;;2249724;61;1058;-82
2021/07/30 02:21:40;365059.00;1.22;629.74;67971.00;0.23;118.25;;;;;21.80;1.00;;;;;;2253003;61;995;-80
2021/07/30 02:24:07;295325.00;0.98;509.88;76804.00;0.26;133.52;;;;;21.80;1.00;;;;;;2248597;61;1026;-78
2021/07/30 02:26:35;459106.00;1.53;791.45;90819.00;0.30;157.72;;;;;21.90;1.00;;;;;;2246600;61;1417;-78
2021/07/30 02:29:02;248157.00;0.83;428.78;0.00;0.00;0.62;;;;;21.40;1.00;;;;;;2252541;61;931;-79
2021/07/30 02:31:29;155751.00;0.52;269.72;0.00;0.00;0.62;;;;;21.20;1.00;;;;;;2252397;61;982;-79
2021/07/30 02:33:58;124755.00;0.42;216.28;0.00;0.00;0.62;;;;;21.20;1.00;;;;;;2248243;61;2010;-77
2021/07/30 02:36:25;110880.00;0.37;192.35;0.00;0.00;0.62;;;;;21.10;1.00;;;;;;2244586;61;1407;-79
2021/07/30 02:38:52;114396.00;0.38;198.41;0.00;0.00;0.62;;;;;21.40;1.00;;;;;;2245319;61;937;-80
2021/07/30 02:41:19;144650.00;0.48;250.59;0.00;0.00;0.62;;;;;21.20;1.00;;;;;;2245646;61;1006;-78
2021/07/30 02:43:47;168264.00;0.56;291.28;0.00;0.00;0.62;;;;;21.00;1.00;;;;;;2242488;61;959;-80
2021/07/30 02:46:16;136450.00;0.45;236.45;0.00;0.00;0.62;;;;;21.20;1.00;;;;;;2253369;61;985;-78
2021/07/30 02:48:43;123334.00;0.41;213.83;0.00;0.00;0.62;;;;;21.40;1.00;;;;;;2253286;61;1425;-79
2021/07/30 02:51:11;26378.00;0.09;46.31;0.00;0.00;0.62;;;;;21.30;1.00;;;;;;2253763;61;965;-80
2021/07/30 02:53:39;119332.00;0.40;206.93;0.00;0.00;0.62;;;;;21.30;1.00;;;;;;2255934;61;1934;-81
2021/07/30 02:56:06;216817.00;0.72;374.87;0.00;0.00;0.62;;;;;21.30;1.00;;;;;;2256042;61;1017;-80
2021/07/30 02:58:33;141355.00;0.47;244.91;0.00;0.00;0.62;;;;;20.80;1.00;;;;;;2252658;61;1315;-79
2021/07/30 03:01:00;175020.00;0.58;302.91;0.00;0.00;0.62;;;;;20.30;1.00;;;;;;2251771;61;996;-80
2021/07/30 03:03:27;255562.00;0.85;441.52;0.00;0.00;0.62;;;;;19.90;1.00;;;;;;2243849;61;955;-80
2021/07/30 03:05:54;256197.00;0.85;442.61;2987.00;0.01;5.80;;;;;19.60;1.00;;;;;;2243880;61;962;-81
2021/07/30 03:08:23;125345.00;0.42;217.30;0.00;0.00;0.62;;;;;19.70;1.00;;;;;;2237530;61;1408;-80
2021/07/30 03:10:50;227867.00;0.76;393.88;0.00;0.00;0.62;;;;;19.70;1.00;;;;;;2237454;61;955;-81
2021/07/30 03:13:17;267910.00;0.89;462.75;0.00;0.00;0.62;;;;;19.60;1.00;;;;;;2243912;61;1918;-80
2021/07/30 03:15:44;177456.00;0.59;307.11;0.00;0.00;0.62;;;;;19.50;1.00;;;;;;2240624;61;962;-81
2021/07/30 03:18:11;246008.00;0.82;425.09;0.00;0.00;0.62;;;;;19.90;1.00;;;;;;2244503;61;1328;-80
2021/07/30 03:20:38;301617.00;1.01;520.70;28988.00;0.10;50.83;;;;;20.00;1.00;;;;;;2248716;61;983;-81
2021/07/30 03:23:05;104307.00;0.35;181.01;0.00;0.00;0.62;;;;;19.30;1.00;;;;;;2251654;61;1002;-80
2021/07/30 03:25:33;108404.00;0.36;188.08;0.00;0.00;0.62;;;;;19.00;1.00;;;;;;2245295;61;986;-81
2021/07/30 03:30:27;248364.00;0.83;429.14;19913.00;0.07;35.12;;;;;19.10;1.00;;;;;;2269728;61;1383;-79
2021/07/30 03:32:54;164981.00;0.55;285.62;0.00;0.00;0.62;;;;;19.10;1.00;;;;;;2261192;61;2010;-81
2021/07/30 03:35:21;135264.00;0.45;234.41;0.00;0.00;0.62;;;;;19.00;1.00;;;;;;2261360;61;986;-79
2021/07/30 03:37:48;312463.00;1.04;539.34;0.00;0.00;0.62;;;;;18.70;1.00;;;;;;2259501;61;1436;-80
2021/07/30 03:40:15;198854.00;0.66;343.95;0.00;0.00;0.62;;;;;19.00;1.00;;;;;;2259619;61;984;-81
2021/07/30 03:42:43;209957.00;0.70;363.06;0.00;0.00;0.62;;;;;19.30;1.00;;;;;;2251870;61;1015;-78
2021/07/30 03:45:11;89087.00;0.30;154.73;0.00;0.00;0.62;;;;;19.50;1.00;;;;;;2245491;61;942;-80
2021/07/30 03:47:38;154172.00;0.51;267.00;0.00;0.00;0.62;;;;;19.70;1.00;;;;;;2251691;61;1725;-81
2021/07/30 03:50:05;298132.00;0.99;514.71;0.00;0.00;0.62;;;;;19.60;1.00;;;;;;2248601;61;933;-80
2021/07/30 03:52:33;203334.00;0.68;351.66;0.00;0.00;0.62;;;;;19.70;1.00;;;;;;2251957;61;1029;-80
2021/07/30 03:55:00;127459.00;0.42;220.95;0.00;0.00;0.62;;;;;19.90;1.10;;;;;;2246237;61;2017;-81
2021/07/30 03:57:27;227216.00;0.76;392.76;0.00;0.00;0.62;;;;;20.40;1.30;;;;;;2259870;61;1226;-84
2021/07/30 03:59:56;28985.00;0.10;50.83;0.00;0.00;0.62;;;;;20.70;1.00;;;;;;2254279;61;1042;-80
2021/07/30 04:02:22;47022.00;0.16;82.04;0.00;0.00;0.62;;;;;21.00;1.00;;;;;;2267139;61;906;-79
2021/07/30 04:04:49;112456.00;0.37;195.07;0.00;0.00;0.62;;;;;21.10;1.00;;;;;;2261254;61;930;-80
2021/07/30 04:07:17;29741.00;0.10;52.13;0.00;0.00;0.62;;;;;21.10;1.00;;;;;;2264011;61;1409;-80
2021/07/30 04:09:44;203497.00;0.68;351.94;0.00;0.00;0.62;;;;;21.20;1.00;;;;;;2264068;61;1021;-82
2021/07/30 04:12:11;141117.00;0.47;244.50;0.00;0.00;0.62;;;;;20.70;1.00;;;;;;2264110;61;991;-80
2021/07/30 04:14:38;219856.00;0.73;380.10;0.00;0.00;0.62;;;;;20.50;1.00;;;;;;2255183;61;1993;-80
2021/07/30 04:17:09;96678.00;0.32;167.84;0.00;0.00;0.62;;;;;20.50;1.00;;;;;;2255556;61;1311;-78
2021/07/30 04:19:36;310841.00;1.04;536.55;26959.00;0.09;47.32;;;;;20.30;1.00;;;;;;2251470;61;994;-82
2021/07/30 04:22:03;216037.00;0.72;373.52;0.00;0.00;0.62;;;;;20.70;1.00;;;;;;2248472;61;1009;-79
2021/07/30 04:24:30;149899.00;0.50;259.63;0.00;0.00;0.62;;;;;21.10;1.00;;;;;;2241950;61;990;-79
2021/07/30 04:26:57;151889.00;0.51;263.06;0.00;0.00;0.62;;;;;21.50;1.00;;;;;;2251596;61;1291;-77
2021/07/30 04:29:24;118745.00;0.40;205.92;0.00;0.00;0.62;;;;;21.60;1.00;;;;;;2248458;61;959;-81
2021/07/30 04:31:51;83229.00;0.28;144.61;0.00;0.00;0.62;;;;;21.80;1.00;;;;;;2242372;61;1030;-79
2021/07/30 04:34:19;409412.00;1.36;705.99;9334.00;0.03;16.80;;;;;21.50;1.00;;;;;;2243159;61;1923;-81
2021/07/30 04:36:46;183563.00;0.61;317.63;0.00;0.00;0.62;;;;;21.70;1.00;;;;;;2241292;61;1328;-82
2021/07/30 04:39:13;232740.00;0.78;402.26;0.00;0.00;0.62;;;;;21.90;1.00;;;;;;2251620;61;940;-82
2021/07/30 04:41:41;304419.00;1.01;525.52;0.00;0.00;0.62;;;;;22.00;1.00;;;;;;2243799;61;1126;-81
2021/07/30 04:44:08;364916.00;1.22;629.50;0.00;0.00;0.62;;;;;22.20;1.00;;;;;;2235862;62;1024;-80
2021/07/30 04:46:43;226685.00;0.76;391.85;0.00;0.00;0.62;;;;;22.40;1.00;;;;;;2235740;62;1370;-80
2021/07/30 04:49:10;349290.00;1.16;602.64;0.00;0.00;0.62;;;;;22.10;1.00;;;;;;2223945;62;1066;-82
2021/07/30 04:51:40;318371.00;1.06;549.50;37696.00;0.13;65.90;;;;;22.10;1.00;;;;;;2223212;62;1026;-79
2021/07/30 04:54:07;70365.00;0.23;122.39;0.00;0.00;0.62;;;;;22.20;1.00;;;;;;2236526;62;1920;-79
2021/07/30 04:56:33;110522.00;0.37;191.73;0.00;0.00;0.62;;;;;22.20;1.00;;;;;;2230080;62;1467;-80
2021/07/30 04:59:00;110072.00;0.37;190.95;0.00;0.00;0.62;;;;;22.20;1.00;;;;;;2237888;62;901;-77
2021/07/30 05:01:27;150345.00;0.50;260.40;0.00;0.00;0.62;;;;;22.30;1.00;;;;;;2244358;61;967;-79
2021/07/30 05:03:54;112021.00;0.37;194.32;0.00;0.00;0.62;;;;;22.20;1.00;;;;;;2244412;61;991;-81
2021/07/30 05:06:22;158366.00;0.53;274.22;0.00;0.00;0.62;;;;;22.00;1.00;;;;;;2244354;61;1006;-80
2021/07/30 05:08:51;146869.00;0.49;254.41;0.00;0.00;0.62;;;;;22.10;1.00;;;;;;2239769;61;1564;-79
2021/07/30 05:11:18;113119.00;0.38;196.21;0.00;0.00;0.62;;;;;21.90;1.00;;;;;;2236658;62;1030;-79
2021/07/30 05:13:45;105490.00;0.35;183.05;0.00;0.00;0.62;;;;;21.80;1.00;;;;;;2242883;61;1931;-79
2021/07/30 05:16:14;188144.00;0.63;325.51;0.00;0.00;0.62;;;;;21.80;1.00;;;;;;2238708;61;984;-81
2021/07/30 05:21:12;130199.00;0.43;225.67;0.00;0.00;0.62;;;;;22.20;1.00;;;;;;2270590;61;1407;-80
2021/07/30 05:23:39;141282.00;0.47;244.78;0.00;0.00;0.62;;;;;22.30;1.00;;;;;;2260381;61;942;-80
2021/07/30 05:26:08;47640.00;0.16;83.10;0.00;0.00;0.62;;;;;22.30;1.00;;;;;;2260479;61;1009;-78
2021/07/30 05:28:35;157642.00;0.53;272.98;0.00;0.00;0.62;;;;;22.50;1.00;;;;;;2259304;61;1309;-81
2021/07/30 05:31:02;254103.00;0.85;439.01;0.00;0.00;0.62;;;;;22.70;1.00;;;;;;2257034;61;926;-79
2021/07/30 05:33:30;105068.00;0.35;182.32;0.00;0.00;0.62;;;;;22.90;1.00;;;;;;2260450;61;1999;-80
2021/07/30 05:35:58;167605.00;0.56;290.14;0.00;0.00;0.62;;;;;23.00;1.00;;;;;;2252719;61;1024;-80
2021/07/30 05:38:25;126001.00;0.42;218.43;0.00;0.00;0.62;;;;;23.00;1.00;;;;;;2251916;61;1311;-80
2021/07/30 05:40:52;573637.00;1.91;988.72;122817.00;0.41;212.94;;;;;23.00;1.00;;;;;;2253161;61;965;-79
2021/07/30 05:43:20;15554.00;0.05;27.57;0.00;0.00;0.62;;;;;23.00;1.00;;;;;;2246754;61;997;-78
2021/07/30 05:45:47;96776.00;0.32;168.01;0.00;0.00;0.62;;;;;23.80;1.00;;;;;;2249855;61;1010;-82
2021/07/30 05:48:14;113292.00;0.38;196.51;0.00;0.00;0.62;;;;;25.30;1.00;;;;;;2256425;61;1457;-82
2021/07/30 05:50:41;159311.00;0.53;275.85;0.00;0.00;0.62;;;;;26.70;1.00;;;;;;2249941;61;933;-81
2021/07/30 05:53:08;281160.00;0.94;485.53;53486.00;0.18;93.21;;;;;27.90;1.00;;;;;;2256146;61;988;-82
2021/07/30 05:55:37;86685.00;0.29;150.58;0.00;0.00;0.62;;;;;29.20;1.00;;;;;;2264574;61;1985;-81
2021/07/30 06:00:33;42279.00;0.14;73.83;0.00;0.00;0.62;;;;;30.60;1.00;;;;;;2270528;61;1395;-78
2021/07/30 06:03:00;188660.00;0.63;326.40;0.00;0.00;0.62;;;;;30.90;1.00;;;;;;2257996;61;962;-82
2021/07/30 06:05:27;119717.00;0.40;207.59;0.00;0.00;0.62;;;;;31.10;1.00;;;;;;2257315;61;999;-80
2021/07/30 06:07:57;112483.00;0.37;195.11;0.00;0.00;0.62;;;;;32.00;1.00;;;;;;2253560;61;1350;-80
2021/07/30 06:10:24;115231.00;0.38;199.86;0.00;0.00;0.62;;;;;32.10;1.00;;;;;;2256744;61;1054;-82
2021/07/30 06:12:52;64340.00;0.21;111.98;0.00;0.00;0.62;;;;;32.90;1.00;;;;;;2253490;61;1024;-81
2021/07/30 06:15:22;71494.00;0.24;124.34;0.00;0.00;0.62;;;;;33.20;1.00;;;;;;2253660;61;1999;-80
2021/07/30 06:17:50;74852.00;0.25;130.14;0.00;0.00;0.62;;;;;33.00;1.00;;;;;;2253332;61;1339;-82
2021/07/30 06:20:18;79503.00;0.27;138.18;0.00;0.00;0.62;;;;;32.50;1.00;;;;;;2260599;61;982;-81
2021/07/30 06:22:45;83894.00;0.28;145.76;0.00;0.00;0.62;;;;;33.00;1.00;;;;;;2260652;61;1014;-81
2021/07/30 06:25:13;119345.00;0.40;206.95;0.00;0.00;0.62;;;;;33.00;1.00;;;;;;2250084;61;1004;-81
2021/07/30 06:30:09;82722.00;0.28;143.74;0.00;0.00;0.62;;;;;33.30;1.00;;;;;;2270188;61;1403;-83
2021/07/30 06:32:38;13495.00;0.04;24.00;0.00;0.00;0.62;;;;;32.80;1.00;;;;;;2261441;61;1005;-80
2021/07/30 06:35:08;131842.00;0.44;228.51;0.00;0.00;0.62;;;;;34.00;1.00;;;;;;2261424;61;1995;-81
2021/07/30 06:37:36;198303.00;0.66;343.00;0.00;0.00;0.62;;;;;34.10;1.00;;;;;;2264822;61;1443;-80
2021/07/30 06:40:05;81014.00;0.27;140.79;0.00;0.00;0.62;;;;;35.30;1.00;;;;;;2261475;61;929;-83
2021/07/30 06:42:33;28138.00;0.09;49.36;0.00;0.00;0.62;;;;;34.90;1.00;;;;;;2262941;61;942;-83
2021/07/30 06:45:00;0.00;0.00;0.62;0.00;0.00;0.62;;;;;35.20;1.00;;;;;;2263846;61;1017;-82
2021/07/30 06:49:55;122560.00;0.41;212.50;0.00;0.00;0.62;;;;;35.00;1.00;;;;;;2270485;61;1399;-80
2021/07/30 06:52:23;52731.00;0.18;91.91;0.00;0.00;0.62;;;;;35.20;1.00;;;;;;2255913;61;962;-80
2021/07/30 06:54:54;106200.00;0.35;184.27;28211.00;0.09;49.49;;;;;34.90;1.00;;;;;;2244726;61;1920;-82
2021/07/30 06:57:21;0.00;0.00;0.62;0.00;0.00;0.62;;;;;34.20;1.00;;;;;;2252518;61;1366;-81
2021/07/30 06:59:48;0.00;0.00;0.62;0.00;0.00;0.62;;;;;33.90;1.00;;;;;;2255168;61;1048;-81
2021/07/30 07:04:43;0.00;0.00;0.62;0.00;0.00;0.62;;;;;34.00;1.00;;;;;;2269845;61;1425;-80
2021/07/30 07:07:10;0.00;0.00;0.62;0.00;0.00;0.62;;;;;34.10;1.00;;;;;;2268345;61;1585;-82
2021/07/30 07:09:38;54029.00;0.18;94.15;0.00;0.00;0.62;;;;;34.40;1.00;;;;;;2268253;61;1046;-82
2021/07/30 07:12:06;52320.00;0.17;91.20;0.00;0.00;0.62;;;;;35.10;1.00;;;;;;2259807;61;1056;-81
2021/07/30 07:14:33;193253.00;0.64;334.31;0.00;0.00;0.62;;;;;35.80;1.00;;;;;;2256351;61;1911;-80
2021/07/30 07:17:00;0.00;0.00;0.62;0.00;0.00;0.62;;;;;36.20;1.00;;;;;;2249210;61;1381;-81
2021/07/30 07:19:27;80593.00;0.27;140.06;0.00;0.00;0.62;;;;;36.90;1.00;;;;;;2252433;61;961;-83
2021/07/30 07:21:55;38878.00;0.13;67.95;0.00;0.00;0.62;;;;;37.10;1.00;;;;;;2252053;61;990;-81
2021/07/30 07:24:22;67084.00;0.22;116.72;0.00;0.00;0.62;;;;;36.90;1.00;;;;;;2251972;61;1014;-81
2021/07/30 07:26:51;13189.00;0.04;23.47;0.00;0.00;0.62;;;;;36.90;1.00;;;;;;2252073;61;1257;-83
2021/07/30 07:29:18;22375.00;0.07;39.38;0.00;0.00;0.62;;;;;36.00;1.00;;;;;;2248416;61;949;-81
2021/07/30 07:31:46;58128.00;0.19;101.24;0.00;0.00;0.62;;;;;35.60;1.00;;;;;;2251960;61;999;-82
2021/07/30 07:34:13;0.00;0.00;0.62;0.00;0.00;0.62;;;;;35.80;1.00;;;;;;2242255;61;1998;-81
2021/07/30 07:36:40;6610.00;0.02;12.08;0.00;0.00;0.62;;;;;36.30;1.00;;;;;;2245354;61;1344;-82
2021/07/30 07:39:07;0.00;0.00;0.62;0.00;0.00;0.62;;;;;36.80;1.00;;;;;;2242248;61;986;-82
2021/07/30 07:44:03;688292.00;2.29;1186.94;108229.00;0.36;187.77;;;;;36.60;1.00;;;;;;2270063;61;1424;-81
2021/07/30 07:46:30;44353.00;0.15;77.42;0.00;0.00;0.62;;;;;36.70;1.00;;;;;;2257703;61;1250;-82
2021/07/30 07:48:59;370613.00;1.24;639.29;173839.00;0.58;300.88;;;;;36.70;1.00;;;;;;2259365;61;983;-84
2021/07/30 07:51:26;42994.00;0.14;75.07;0.00;0.00;0.62;;;;;37.40;1.00;;;;;;2259655;61;952;-81
2021/07/30 07:53:54;0.00;0.00;0.62;0.00;0.00;0.62;;;;;37.80;1.00;;;;;;2253230;61;1004;-82
2021/07/30 07:56:20;11642.00;0.04;20.79;0.00;0.00;0.62;;;;;37.80;1.00;;;;;;2249832;61;2022;-83
2021/07/30 07:58:47;24285.00;0.08;42.69;0.00;0.00;0.62;;;;;38.50;1.00;;;;;;2247723;61;1517;-82
2021/07/30 08:03:44;0.00;0.00;0.62;0.00;0.00;0.62;;;;;37.60;1.00;;;;;;2270085;61;1388;-81
2021/07/30 08:06:17;23656.00;0.08;41.60;0.00;0.00;0.62;;;;;37.40;1.00;;;;;;2258004;61;1001;-81
2021/07/30 08:08:44;21123.00;0.07;37.21;0.00;0.00;0.62;;;;;37.10;1.00;;;;;;2264471;61;1338;-82
2021/07/30 08:11:12;1901.00;0.01;3.91;0.00;0.00;0.62;;;;;37.00;1.00;;;;;;2261289;61;987;-81
2021/07/30 08:13:39;0.00;0.00;0.62;0.00;0.00;0.62;;;;;36.70;1.00;;;;;;2268077;61;980;-83
2021/07/30 08:16:06;0.00;0.00;0.62;0.00;0.00;0.62;;;;;36.70;1.00;;;;;;2259771;61;2018;-82
2021/07/30 08:18:33;0.00;0.00;0.62;0.00;0.00;0.62;;;;;37.00;1.00;;;;;;2251602;61;1253;-83
2021/07/30 08:21:02;196119.00;0.65;339.24;61687.00;0.21;107.39;;;;;37.50;1.00;;;;;;2248678;61;990;-83
2021/07/30 08:23:30;0.00;0.00;0.62;0.00;0.00;0.62;;;;;37.50;1.00;;;;;;2240143;61;961;-82
2021/07/30 08:25:57;3161.00;0.01;6.10;0.00;0.00;0.62;;;;;37.50;1.00;;;;;;2233557;62;954;-84
2021/07/30 08:28:25;0.00;0.00;0.62;0.00;0.00;0.62;;;;;37.40;1.00;;;;;;2237464;61;1416;-81
2021/07/30 08:30:52;0.00;0.00;0.62;0.00;0.00;0.62;;;;;37.30;1.00;;;;;;2237440;62;987;-81
2021/07/30 08:33:19;0.00;0.00;0.62;0.00;0.00;0.62;;;;;37.60;1.00;;;;;;2238552;61;995;-80
2021/07/30 08:35:45;5816.00;0.02;10.70;0.00;0.00;0.62;;;;;37.40;1.00;;;;;;2248878;61;1985;-80
2021/07/30 08:38:14;85153.00;0.28;147.94;0.00;0.00;0.62;;;;;37.50;1.00;;;;;;2256330;61;1434;-81
2021/07/30 08:40:41;0.00;0.00;0.62;0.00;0.00;0.62;;;;;37.50;1.00;;;;;;2252514;61;983;-81
2021/07/30 08:43:13;0.00;0.00;0.62;0.00;0.00;0.62;;;;;37.30;1.00;;;;;;2258016;61;1018;-81
2021/07/30 08:45:40;16011.00;0.05;28.36;0.00;0.00;0.62;;;;;36.10;1.00;;;;;;2264895;61;1010;-81
2021/07/30 08:48:07;0.00;0.00;0.62;0.00;0.00;0.62;;;;;35.60;1.00;;;;;;2264725;61;1301;-80
2021/07/30 08:50:38;0.00;0.00;0.62;0.00;0.00;0.62;;;;;36.00;1.00;;;;;;2257834;61;990;-81
2021/07/30 08:53:06;88043.00;0.29;152.93;0.00;0.00;0.62;;;;;36.20;1.00;;;;;;2257809;61;992;-82
2021/07/30 08:55:34;163129.00;0.54;282.43;58329.00;0.19;101.59;;;;;36.70;1.00;;;;;;2264746;61;1908;-81
2021/07/30 08:58:01;0.00;0.00;0.62;0.00;0.00;0.62;;;;;36.80;1.00;;;;;;2257872;61;1384;-80
2021/07/30 09:00:28;0.00;0.00;0.62;0.00;0.00;0.62;;;;;36.40;1.00;;;;;;2264535;61;1022;-81
2021/07/30 09:02:56;112087.00;0.37;194.43;47057.00;0.16;82.10;;;;;36.00;1.00;;;;;;2264562;61;1106;-81
2021/07/30 09:05:28;0.00;0.00;0.62;0.00;0.00;0.62;;;;;35.20;1.00;;;;;;2257835;61;936;-83
2021/07/30 09:07:55;49737.00;0.17;86.73;0.00;0.00;0.62;;;;;35.10;1.00;;;;;;2252340;61;1333;-83
2021/07/30 09:10:35;43782.00;0.15;76.43;0.00;0.00;0.62;;;;;35.20;1.00;;;;;;2249197;61;936;-82
2021/07/30 09:13:14;77095.00;0.26;134.02;0.00;0.00;0.62;;;;;35.60;1.00;;;;;;2245864;61;1005;-81
2021/07/30 09:15:42;163840.00;0.55;283.66;44894.00;0.15;78.35;;;;;35.30;1.00;;;;;;2248354;61;1924;-83
2021/07/30 09:18:28;0.00;0.00;0.62;0.00;0.00;0.62;;;;;35.10;1.00;;;;;;2248486;61;1362;-83
2021/07/30 09:20:55;0.00;0.00;0.62;0.00;0.00;0.62;;;;;35.40;1.00;;;;;;2240522;61;971;-81
2021/07/30 09:23:24;14917.00;0.05;26.47;0.00;0.00;0.62;;;;;35.20;1.00;;;;;;2237391;61;1026;-82
2021/07/30 09:25:52;250568.00;0.84;432.93;65080.00;0.22;113.26;;;;;34.80;1.00;;;;;;2244035;61;921;-83
2021/07/30 09:28:20;173117.00;0.58;299.64;56778.00;0.19;98.91;;;;;34.30;1.00;;;;;;2248527;61;1311;-81
2021/07/30 09:30:59;254440.00;0.85;439.59;58487.00;0.19;101.86;;;;;33.50;1.00;;;;;;2241766;61;971;-80
2021/07/30 09:33:29;167644.00;0.56;290.21;56663.00;0.19;98.71;;;;;33.20;1.00;;;;;;2251193;61;1011;-82
2021/07/30 09:35:59;249392.00;0.83;430.91;63915.00;0.21;111.24;;;;;33.20;1.00;;;;;;2246473;61;2009;-81
2021/07/30 09:38:27;261265.00;0.87;451.32;73717.00;0.25;128.18;;;;;33.30;1.00;;;;;;2258046;61;1464;-81
2021/07/30 09:41:14;165791.00;0.55;287.02;60480.00;0.20;105.31;;;;;33.20;1.00;;;;;;2264877;61;1037;-79
2021/07/30 09:43:45;240831.00;0.80;416.18;58989.00;0.20;102.73;;;;;33.20;1.00;;;;;;2264684;61;1001;-81
2021/07/30 09:46:14;137852.00;0.46;238.87;0.00;0.00;0.62;;;;;33.20;1.00;;;;;;2264600;61;986;-79
2021/07/30 09:48:49;29456.00;0.10;51.64;0.00;0.00;0.62;;;;;33.20;1.00;;;;;;2254083;61;1503;-81
2021/07/30 09:51:17;129253.00;0.43;224.04;0.00;0.00;0.62;;;;;32.90;1.00;;;;;;2258850;61;977;-79
2021/07/30 09:56:15;117903.00;0.39;204.47;0.00;0.00;0.62;;;;;32.50;1.00;;;;;;2270431;61;1905;-81
2021/07/30 09:58:45;113184.00;0.38;196.32;0.00;0.00;0.62;;;;;32.70;1.00;;;;;;2268714;61;1314;-80
2021/07/30 10:01:17;146566.00;0.49;253.89;0.00;0.00;0.62;;;;;32.80;1.00;;;;;;2268709;61;960;-78
2021/07/30 10:03:47;66031.00;0.22;114.90;0.00;0.00;0.62;;;;;32.30;1.00;;;;;;2261826;61;985;-77
2021/07/30 10:06:15;205872.00;0.69;356.03;0.00;0.00;0.62;;;;;32.40;1.00;;;;;;2260684;61;971;-81
2021/07/30 10:08:43;171106.00;0.57;296.17;0.00;0.00;0.62;;;;;32.60;1.00;;;;;;2264337;61;1290;-81
2021/07/30 10:11:11;282427.00;0.94;487.71;51655.00;0.17;90.05;;;;;32.60;1.00;;;;;;2261233;61;992;-79
2021/07/30 10:13:48;247951.00;0.83;428.43;0.00;0.00;0.62;;;;;32.60;1.00;;;;;;2264423;61;1018;-80
2021/07/30 10:16:17;108746.00;0.36;188.67;0.00;0.00;0.62;;;;;32.70;1.00;;;;;;2260722;61;1924;-78
2021/07/30 10:18:45;55986.00;0.19;97.54;0.00;0.00;0.62;;;;;32.50;1.00;;;;;;2260890;61;1319;-80
2021/07/30 10:21:16;161003.00;0.54;278.77;0.00;0.00;0.62;;;;;32.10;1.00;;;;;;2264570;61;994;-81
2021/07/30 10:23:48;198254.00;0.66;342.92;68490.00;0.23;119.15;;;;;31.50;1.00;;;;;;2264416;61;1028;-80